Time;durP1;ratioP1;P1;durP2;ratioP2;P2;SDS_P1;SDS_P2;PMS_P1;PMS_P2;Temp;Humidity;BMP_temperature;BMP_pressure;BME280_temperature;BME280_humidity;BME280_pressure;Samples;Min_cycle;Max_cycle;Signal;HPM_P1;HPM_P2
2023/09/11 00:01:35;;;;;;;16.80;7.88;;;;;;;;;;5063881;28;20048;-71
2023/09/11 00:04:02;;;;;;;17.92;7.78;;;;;;;;;;5065542;28;21488;-71
2023/09/11 00:06:29;;;;;;;17.67;8.40;;;;;;;;;;5054536;28;20065;-71
2023/09/11 00:09:00;;;;;;;16.80;7.82;;;;;;;;;;5061009;28;20574;-69
2023/09/11 00:11:27;;;;;;;16.38;7.82;;;;;;;;;;5069573;28;20041;-71
2023/09/11 00:13:54;;;;;;;24.85;8.20;;;;;;;;;;5070723;28;20059;-71
2023/09/11 00:16:22;;;;;;;14.80;8.13;;;;;;;;;;5063828;28;20373;-70
2023/09/11 00:18:50;;;;;;;19.92;8.10;;;;;;;;;;5059391;28;20451;-71
2023/09/11 00:21:18;;;;;;;16.38;8.13;;;;;;;;;;5063848;28;20040;-71
2023/09/11 00:23:45;;;;;;;16.73;8.32;;;;;;;;;;5052730;28;20099;-70
2023/09/11 00:26:13;;;;;;;18.63;7.90;;;;;;;;;;5063739;28;20041;-71
2023/09/11 00:28:40;;;;;;;17.48;7.90;;;;;;;;;;5062562;28;20097;-71
2023/09/11 00:31:07;;;;;;;20.52;8.20;;;;;;;;;;5057443;28;20049;-71
2023/09/11 00:33:34;;;;;;;17.33;8.40;;;;;;;;;;5068962;28;20059;-71
2023/09/11 00:36:03;;;;;;;17.77;8.27;;;;;;;;;;5061749;28;20057;-71
2023/09/11 00:38:30;;;;;;;19.83;8.38;;;;;;;;;;5066579;28;20044;-70
2023/09/11 00:40:57;;;;;;;17.45;8.52;;;;;;;;;;5093744;28;20078;-71
2023/09/11 00:43:25;;;;;;;16.25;8.50;;;;;;;;;;5105136;28;20132;-70
2023/09/11 00:45:52;;;;;;;18.00;8.20;;;;;;;;;;5084212;28;20047;-71
2023/09/11 00:48:19;;;;;;;21.23;8.30;;;;;;;;;;5081747;28;20078;-71
2023/09/11 00:50:46;;;;;;;25.83;9.10;;;;;;;;;;5100149;28;20048;-71
2023/09/11 00:53:15;;;;;;;20.05;8.05;;;;;;;;;;5108088;28;20054;-70
2023/09/11 00:55:44;;;;;;;14.70;8.32;;;;;;;;;;5099652;28;20036;-71
2023/09/11 00:58:12;;;;;;;14.93;7.82;;;;;;;;;;5109580;28;20051;-70
2023/09/11 01:00:39;;;;;;;20.80;8.32;;;;;;;;;;5106074;28;20682;-71
2023/09/11 01:03:07;;;;;;;17.98;8.60;;;;;;;;;;5103624;28;20420;-71
2023/09/11 01:05:36;;;;;;;23.05;8.57;;;;;;;;;;5101069;28;20070;-71
2023/09/11 01:08:03;;;;;;;24.88;8.90;;;;;;;;;;5097295;28;20467;-70
2023/09/11 01:10:33;;;;;;;15.95;8.18;;;;;;;;;;5085955;28;20059;-69
2023/09/11 01:13:01;;;;;;;14.88;8.45;;;;;;;;;;5083820;28;20043;-71
2023/09/11 01:15:32;;;;;;;15.60;8.02;;;;;;;;;;5103638;28;20048;-71
2023/09/11 01:18:01;;;;;;;18.67;8.57;;;;;;;;;;5106522;28;20050;-71
2023/09/11 01:20:39;;;;;;;17.52;8.07;;;;;;;;;;5101710;28;20063;-69
2023/09/11 01:23:27;;;;;;;20.13;8.80;;;;;;;;;;5101166;28;20450;-71
2023/09/11 01:26:05;;;;;;;18.08;8.13;;;;;;;;;;5063939;28;20118;-71
2023/09/11 01:28:45;;;;;;;16.60;8.25;;;;;;;;;;5099457;28;20055;-71
2023/09/11 01:31:14;;;;;;;24.30;8.70;;;;;;;;;;5093303;28;20044;-70
2023/09/11 01:33:41;;;;;;;19.42;8.85;;;;;;;;;;5102670;28;20051;-73
2023/09/11 01:36:08;;;;;;;18.92;8.75;;;;;;;;;;5075538;28;20058;-70
2023/09/11 01:38:36;;;;;;;13.50;8.77;;;;;;;;;;5105380;28;20781;-71
2023/09/11 01:41:04;;;;;;;14.98;8.55;;;;;;;;;;5101515;28;20051;-71
2023/09/11 01:43:37;;;;;;;21.55;9.45;;;;;;;;;;5089709;28;20052;-71
2023/09/11 01:46:05;;;;;;;16.77;8.90;;;;;;;;;;5099147;28;20047;-71
2023/09/11 01:48:33;;;;;;;18.55;8.65;;;;;;;;;;5106554;28;20048;-71
2023/09/11 01:51:01;;;;;;;14.13;8.65;;;;;;;;;;5104960;28;20044;-71
2023/09/11 01:53:29;;;;;;;15.05;8.80;;;;;;;;;;5089840;28;20056;-71
2023/09/11 01:55:56;;;;;;;18.25;8.73;;;;;;;;;;5106672;28;20052;-70
2023/09/11 01:58:24;;;;;;;17.95;8.88;;;;;;;;;;5107697;28;20046;-71
2023/09/11 02:00:51;;;;;;;19.45;8.88;;;;;;;;;;5109835;27;20059;-71
2023/09/11 02:03:19;;;;;;;19.40;8.98;;;;;;;;;;5105409;27;20051;-71
2023/09/11 02:05:47;;;;;;;13.18;8.90;;;;;;;;;;5103432;27;20059;-70
2023/09/11 02:08:15;;;;;;;19.92;8.68;;;;;;;;;;5111004;27;20051;-71
2023/09/11 02:10:42;;;;;;;18.75;8.35;;;;;;;;;;5087848;28;20044;-70
2023/09/11 02:13:09;;;;;;;19.27;8.50;;;;;;;;;;5106827;27;20043;-70
2023/09/11 02:15:36;;;;;;;21.05;8.60;;;;;;;;;;5104687;27;20834;-71
2023/09/11 02:18:04;;;;;;;20.85;8.68;;;;;;;;;;5079588;28;20059;-71
2023/09/11 02:20:31;;;;;;;19.48;8.68;;;;;;;;;;5106662;27;20090;-71
2023/09/11 02:22:59;;;;;;;16.70;8.55;;;;;;;;;;5109736;27;20411;-70
2023/09/11 02:25:27;;;;;;;19.40;9.02;;;;;;;;;;5079537;28;20056;-69
2023/09/11 02:27:54;;;;;;;19.88;8.82;;;;;;;;;;5083245;28;20457;-70
2023/09/11 02:30:21;;;;;;;18.90;9.15;;;;;;;;;;5103963;27;20051;-71
2023/09/11 02:32:48;;;;;;;17.30;9.05;;;;;;;;;;5101590;28;20055;-70
2023/09/11 02:35:15;;;;;;;22.73;9.65;;;;;;;;;;5096491;27;20043;-70
2023/09/11 02:37:42;;;;;;;17.75;9.52;;;;;;;;;;5088923;28;20051;-71
2023/09/11 02:40:11;;;;;;;19.02;8.82;;;;;;;;;;5107962;28;20140;-70
2023/09/11 02:42:38;;;;;;;16.17;8.88;;;;;;;;;;5104097;28;20052;-71
2023/09/11 02:45:06;;;;;;;19.77;9.93;;;;;;;;;;5107373;28;20752;-71
2023/09/11 02:47:33;;;;;;;19.77;9.50;;;;;;;;;;5111063;28;20394;-71
2023/09/11 02:50:00;;;;;;;16.63;9.05;;;;;;;;;;5104548;27;20047;-71
2023/09/11 02:52:27;;;;;;;23.70;9.38;;;;;;;;;;5098817;28;20040;-71
2023/09/11 02:54:55;;;;;;;20.75;8.50;;;;;;;;;;5079037;28;20067;-70
2023/09/11 02:57:23;;;;;;;18.55;9.00;;;;;;;;;;5089180;28;20051;-70
2023/09/11 02:59:54;;;;;;;17.50;9.13;;;;;;;;;;5087783;28;20131;-71
2023/09/11 03:02:22;;;;;;;17.52;8.77;;;;;;;;;;5111945;28;20143;-70
2023/09/11 03:04:51;;;;;;;13.77;8.70;;;;;;;;;;5111505;27;20081;-70
2023/09/11 03:07:18;;;;;;;19.92;9.50;;;;;;;;;;5103786;28;20437;-71
2023/09/11 03:09:45;;;;;;;17.30;9.32;;;;;;;;;;5107726;28;20554;-71
2023/09/11 03:12:13;;;;;;;14.32;9.07;;;;;;;;;;5104277;28;20044;-71
2023/09/11 03:14:41;;;;;;;19.55;9.10;;;;;;;;;;5103460;28;20074;-70
2023/09/11 03:17:10;;;;;;;21.80;9.35;;;;;;;;;;5114049;27;20398;-70
2023/09/11 03:19:38;;;;;;;20.90;9.73;;;;;;;;;;5111390;28;20108;-72
2023/09/11 03:22:05;;;;;;;15.15;9.50;;;;;;;;;;5104632;28;20497;-70
2023/09/11 03:24:32;;;;;;;17.75;9.48;;;;;;;;;;5105921;27;20043;-71
2023/09/11 03:26:59;;;;;;;14.65;9.05;;;;;;;;;;5107113;27;20375;-70
2023/09/11 03:29:27;;;;;;;19.75;9.85;;;;;;;;;;5106997;28;20048;-71
2023/09/11 03:31:55;;;;;;;22.77;11.02;;;;;;;;;;5086276;28;20051;-70
2023/09/11 03:34:22;;;;;;;18.35;9.68;;;;;;;;;;5099817;28;20043;-72
2023/09/11 03:36:50;;;;;;;15.77;9.45;;;;;;;;;;5081029;28;20063;-69
2023/09/11 03:39:17;;;;;;;21.02;10.02;;;;;;;;;;5085418;28;20056;-70
2023/09/11 03:41:44;;;;;;;16.40;9.65;;;;;;;;;;5099904;28;20044;-71
2023/09/11 03:44:11;;;;;;;18.40;9.30;;;;;;;;;;5102129;28;20059;-70
2023/09/11 03:46:39;;;;;;;17.45;10.00;;;;;;;;;;5103422;28;20062;-69
2023/09/11 03:49:07;;;;;;;19.27;9.73;;;;;;;;;;5100611;28;20123;-71
2023/09/11 03:51:34;;;;;;;18.10;10.60;;;;;;;;;;5100937;28;20043;-69
2023/09/11 03:54:07;;;;;;;20.38;10.10;;;;;;;;;;5110509;27;20035;-71
2023/09/11 03:56:34;;;;;;;19.27;10.48;;;;;;;;;;5105551;28;20136;-71
2023/09/11 03:59:02;;;;;;;13.75;9.25;;;;;;;;;;5105835;27;20039;-71
2023/09/11 04:01:29;;;;;;;22.45;9.77;;;;;;;;;;5090943;28;20063;-70
2023/09/11 04:03:56;;;;;;;23.13;10.65;;;;;;;;;;5116470;27;20043;-71
2023/09/11 04:06:25;;;;;;;16.50;9.68;;;;;;;;;;5111691;27;20051;-70
2023/09/11 04:08:52;;;;;;;17.90;10.20;;;;;;;;;;5106361;27;20046;-71
2023/09/11 04:11:20;;;;;;;17.38;9.98;;;;;;;;;;5111467;28;20044;-71
2023/09/11 04:13:47;;;;;;;15.70;10.35;;;;;;;;;;5107845;27;20047;-71
2023/09/11 04:16:15;;;;;;;19.05;9.55;;;;;;;;;;5105289;27;20395;-71
2023/09/11 04:18:43;;;;;;;18.55;9.48;;;;;;;;;;5111578;27;20042;-71
2023/09/11 04:21:10;;;;;;;16.17;9.32;;;;;;;;;;5083754;28;20063;-71
2023/09/11 04:23:38;;;;;;;19.35;10.30;;;;;;;;;;5102095;27;20112;-71
2023/09/11 04:26:06;;;;;;;27.67;11.23;;;;;;;;;;5089513;28;20059;-71
2023/09/11 04:28:35;;;;;;;19.35;10.27;;;;;;;;;;5090972;28;20055;-71
2023/09/11 04:31:02;;;;;;;17.88;9.77;;;;;;;;;;5099785;28;20052;-70
2023/09/11 04:33:30;;;;;;;18.50;9.82;;;;;;;;;;5103369;28;20096;-71
2023/09/11 04:35:57;;;;;;;17.42;9.68;;;;;;;;;;5103768;28;20058;-70
2023/09/11 04:38:24;;;;;;;22.52;10.73;;;;;;;;;;5084009;28;20074;-69
2023/09/11 04:40:57;;;;;;;21.38;10.40;;;;;;;;;;5103943;28;20058;-70
2023/09/11 04:43:25;;;;;;;27.27;10.27;;;;;;;;;;5103982;28;20039;-70
2023/09/11 04:45:52;;;;;;;19.63;9.93;;;;;;;;;;5109472;28;20039;-71
2023/09/11 04:48:19;;;;;;;18.10;8.88;;;;;;;;;;5105354;28;20142;-71
2023/09/11 04:50:46;;;;;;;17.98;9.80;;;;;;;;;;5109965;28;20410;-71
2023/09/11 04:53:14;;;;;;;18.05;10.05;;;;;;;;;;5108046;28;20046;-71
2023/09/11 04:55:41;;;;;;;18.33;10.45;;;;;;;;;;5104447;28;20052;-69
2023/09/11 04:58:09;;;;;;;21.67;10.35;;;;;;;;;;5082290;28;20051;-71
2023/09/11 05:00:37;;;;;;;18.42;10.35;;;;;;;;;;5082636;28;20058;-70
2023/09/11 05:03:04;;;;;;;16.17;9.90;;;;;;;;;;5105455;28;20052;-71
2023/09/11 05:05:38;;;;;;;19.95;10.73;;;;;;;;;;5102796;28;20542;-70
2023/09/11 05:08:06;;;;;;;20.35;10.88;;;;;;;;;;5097725;28;20044;-71
2023/09/11 05:10:33;;;;;;;21.08;10.73;;;;;;;;;;5086522;28;20047;-71
2023/09/11 05:13:01;;;;;;;20.50;10.23;;;;;;;;;;5101244;28;20127;-71
2023/09/11 05:15:29;;;;;;;28.50;11.10;;;;;;;;;;5093537;28;20051;-71
2023/09/11 05:17:56;;;;;;;23.15;10.32;;;;;;;;;;5107261;28;20043;-71
2023/09/11 05:20:24;;;;;;;24.30;10.68;;;;;;;;;;5090712;28;20063;-71
2023/09/11 05:22:51;;;;;;;17.20;10.95;;;;;;;;;;5104962;28;20058;-71
2023/09/11 05:25:18;;;;;;;16.25;10.20;;;;;;;;;;5104215;28;20047;-70
2023/09/11 05:27:46;;;;;;;20.80;10.88;;;;;;;;;;5098913;28;20051;-72
2023/09/11 05:30:13;;;;;;;20.40;11.13;;;;;;;;;;5081451;28;20490;-71
2023/09/11 05:32:42;;;;;;;18.42;10.30;;;;;;;;;;5104843;27;20052;-71
2023/09/11 05:35:09;;;;;;;18.42;10.50;;;;;;;;;;5106853;27;20052;-71
2023/09/11 05:37:36;;;;;;;24.23;10.80;;;;;;;;;;5098250;27;20056;-71
2023/09/11 05:40:07;;;;;;;18.00;10.52;;;;;;;;;;5101378;27;20050;-72
2023/09/11 05:42:34;;;;;;;26.25;10.95;;;;;;;;;;5108569;27;20039;-72
2023/09/11 05:45:01;;;;;;;17.02;10.82;;;;;;;;;;5112869;27;20109;-71
2023/09/11 05:47:29;;;;;;;21.50;11.32;;;;;;;;;;5102905;28;20052;-71
2023/09/11 05:50:00;;;;;;;20.98;11.02;;;;;;;;;;5101165;27;20695;-71
2023/09/11 05:52:27;;;;;;;20.95;10.45;;;;;;;;;;5109425;27;20070;-71
2023/09/11 05:54:55;;;;;;;24.63;11.18;;;;;;;;;;5111421;27;20040;-71
2023/09/11 05:57:22;;;;;;;18.45;11.95;;;;;;;;;;5101264;28;20044;-71
2023/09/11 05:59:49;;;;;;;18.98;11.10;;;;;;;;;;5098589;28;20483;-72
2023/09/11 06:02:16;;;;;;;20.08;10.07;;;;;;;;;;5105147;28;20057;-71
2023/09/11 06:04:43;;;;;;;21.90;11.75;;;;;;;;;;5088748;28;20075;-70
2023/09/11 06:07:12;;;;;;;21.45;11.32;;;;;;;;;;5089901;28;20047;-71
2023/09/11 06:09:39;;;;;;;16.02;10.30;;;;;;;;;;5102368;28;20044;-71
2023/09/11 06:12:07;;;;;;;22.27;11.63;;;;;;;;;;5104415;28;20051;-71
2023/09/11 06:14:37;;;;;;;22.88;11.48;;;;;;;;;;5107987;27;20905;-72
2023/09/11 06:17:05;;;;;;;19.65;11.00;;;;;;;;;;5107728;27;20042;-72
2023/09/11 06:19:32;;;;;;;18.73;11.25;;;;;;;;;;5082338;28;20062;-72
2023/09/11 06:21:59;;;;;;;25.40;11.35;;;;;;;;;;5089231;28;20051;-72
2023/09/11 06:24:28;;;;;;;26.65;11.95;;;;;;;;;;5103811;28;20044;-72
2023/09/11 06:27:06;;;;;;;20.23;10.95;;;;;;;;;;5105230;28;20058;-72
2023/09/11 06:29:34;;;;;;;19.98;10.75;;;;;;;;;;5094850;28;20051;-72
2023/09/11 06:32:01;;;;;;;20.27;11.35;;;;;;;;;;5082630;28;20044;-72
2023/09/11 06:34:29;;;;;;;18.08;10.57;;;;;;;;;;5104670;27;20047;-72
2023/09/11 06:36:57;;;;;;;19.48;10.77;;;;;;;;;;5107421;28;20050;-72
2023/09/11 06:39:24;;;;;;;26.90;12.00;;;;;;;;;;5087823;27;20056;-72
2023/09/11 06:41:53;;;;;;;19.77;11.70;;;;;;;;;;5106612;28;20044;-72
2023/09/11 06:44:20;;;;;;;20.17;11.20;;;;;;;;;;5099286;27;20056;-73
2023/09/11 06:46:47;;;;;;;19.98;12.05;;;;;;;;;;5083760;28;20054;-72
2023/09/11 06:49:14;;;;;;;19.15;11.80;;;;;;;;;;5103382;27;20044;-72
2023/09/11 06:51:42;;;;;;;24.05;11.90;;;;;;;;;;5106910;28;20054;-73
2023/09/11 06:54:12;;;;;;;19.58;11.45;;;;;;;;;;5108070;27;20421;-72
2023/09/11 06:56:41;;;;;;;20.63;11.45;;;;;;;;;;5091082;28;20083;-72
2023/09/11 06:59:10;;;;;;;17.20;10.70;;;;;;;;;;5108772;27;21467;-72
2023/09/11 07:01:40;;;;;;;22.10;11.65;;;;;;;;;;5112884;27;20067;-73
2023/09/11 07:04:10;;;;;;;20.73;12.43;;;;;;;;;;5113818;27;20043;-73
2023/09/11 07:06:38;;;;;;;19.50;12.13;;;;;;;;;;5101315;27;20112;-72
2023/09/11 07:09:06;;;;;;;20.90;11.95;;;;;;;;;;5085356;28;20048;-72
2023/09/11 07:11:33;;;;;;;19.25;12.25;;;;;;;;;;5103633;28;20059;-72
2023/09/11 07:14:00;;;;;;;24.08;12.48;;;;;;;;;;5097410;28;20040;-72
2023/09/11 07:16:29;;;;;;;20.05;12.45;;;;;;;;;;5088244;27;20052;-72
2023/09/11 07:18:56;;;;;;;19.55;11.50;;;;;;;;;;5086058;28;20055;-72
2023/09/11 07:21:23;;;;;;;23.85;11.00;;;;;;;;;;5089731;28;20051;-72
2023/09/11 07:23:51;;;;;;;22.90;10.27;;;;;;;;;;5087477;28;20486;-72
2023/09/11 07:26:18;;;;;;;17.77;10.88;;;;;;;;;;5103362;27;20502;-72
2023/09/11 07:28:54;;;;;;;17.10;10.52;;;;;;;;;;5103396;28;20043;-72
2023/09/11 07:31:22;;;;;;;19.75;10.52;;;;;;;;;;5083603;28;20044;-71
2023/09/11 07:33:50;;;;;;;23.05;11.35;;;;;;;;;;5102670;28;20461;-73
2023/09/11 07:36:18;;;;;;;17.02;9.85;;;;;;;;;;5101268;27;20043;-72
2023/09/11 07:38:45;;;;;;;23.95;10.57;;;;;;;;;;5107173;28;20143;-72
2023/09/11 07:41:12;;;;;;;18.83;9.90;;;;;;;;;;5087753;28;20051;-72
2023/09/11 07:43:40;;;;;;;18.02;9.77;;;;;;;;;;5107156;28;20048;-71
2023/09/11 07:46:07;;;;;;;17.70;10.38;;;;;;;;;;5088692;28;20051;-72
2023/09/11 07:48:35;;;;;;;13.68;9.88;;;;;;;;;;5104632;28;20051;-72
2023/09/11 07:51:04;;;;;;;16.15;10.05;;;;;;;;;;5084686;28;20051;-72
2023/09/11 07:53:31;;;;;;;17.08;10.43;;;;;;;;;;5110799;28;20048;-72
2023/09/11 07:55:58;;;;;;;18.83;10.93;;;;;;;;;;5085202;28;20047;-73
2023/09/11 07:58:25;;;;;;;19.23;11.00;;;;;;;;;;5106259;28;20645;-72
2023/09/11 08:00:53;;;;;;;18.63;10.90;;;;;;;;;;5113057;27;20050;-71
2023/09/11 08:03:20;;;;;;;20.25;11.50;;;;;;;;;;5101604;28;20047;-71
2023/09/11 08:05:47;;;;;;;20.52;10.75;;;;;;;;;;5096732;27;20388;-72
2023/09/11 08:08:16;;;;;;;17.42;10.95;;;;;;;;;;5100100;28;20062;-72
2023/09/11 08:10:43;;;;;;;16.95;10.50;;;;;;;;;;5109864;27;20047;-72
2023/09/11 08:13:10;;;;;;;17.20;11.27;;;;;;;;;;5106777;27;20126;-72
2023/09/11 08:15:37;;;;;;;20.15;11.70;;;;;;;;;;5103876;28;20055;-71
2023/09/11 08:18:05;;;;;;;21.90;11.20;;;;;;;;;;5103944;28;20047;-72
2023/09/11 08:20:32;;;;;;;21.67;11.48;;;;;;;;;;5089766;28;20047;-72
2023/09/11 08:22:59;;;;;;;16.63;11.75;;;;;;;;;;5107396;28;20063;-72
2023/09/11 08:25:28;;;;;;;16.52;11.38;;;;;;;;;;5095792;28;20044;-72
2023/09/11 08:27:55;;;;;;;18.92;11.45;;;;;;;;;;5091379;28;20133;-71
2023/09/11 08:30:23;;;;;;;22.27;11.82;;;;;;;;;;5105739;28;20043;-73
2023/09/11 08:32:50;;;;;;;19.98;12.77;;;;;;;;;;5101627;28;20035;-71
2023/09/11 08:35:17;;;;;;;20.25;13.25;;;;;;;;;;5107052;27;20044;-72
2023/09/11 08:37:45;;;;;;;21.02;11.98;;;;;;;;;;5083246;28;20052;-71
2023/09/11 08:40:12;;;;;;;20.60;12.45;;;;;;;;;;5102474;28;20051;-72
2023/09/11 08:42:41;;;;;;;23.70;12.82;;;;;;;;;;5104775;28;20054;-72
2023/09/11 08:45:08;;;;;;;21.02;12.73;;;;;;;;;;5089100;28;20791;-72
2023/09/11 08:47:36;;;;;;;18.20;12.40;;;;;;;;;;5081109;28;20495;-72
2023/09/11 08:50:06;;;;;;;18.00;12.45;;;;;;;;;;5103472;28;20410;-72
2023/09/11 08:52:35;;;;;;;17.83;12.50;;;;;;;;;;5100074;28;20135;-72
2023/09/11 08:55:04;;;;;;;23.67;14.30;;;;;;;;;;5103087;28;20040;-71
2023/09/11 08:57:34;;;;;;;24.80;14.18;;;;;;;;;;5082236;28;20144;-71
2023/09/11 09:00:05;;;;;;;20.83;14.40;;;;;;;;;;5098427;28;20054;-72
2023/09/11 09:02:34;;;;;;;22.73;13.40;;;;;;;;;;5104325;28;20052;-71
2023/09/11 09:05:03;;;;;;;25.80;13.40;;;;;;;;;;5087440;28;20517;-72
2023/09/11 09:07:31;;;;;;;24.23;13.63;;;;;;;;;;5087095;28;20131;-73
2023/09/11 09:09:59;;;;;;;24.77;14.23;;;;;;;;;;5110558;27;20054;-71
2023/09/11 09:12:26;;;;;;;19.88;14.50;;;;;;;;;;5109765;28;20054;-73
2023/09/11 09:14:54;;;;;;;21.75;14.35;;;;;;;;;;5098080;28;20048;-72
2023/09/11 09:17:22;;;;;;;22.27;12.88;;;;;;;;;;5108488;27;20067;-72
2023/09/11 09:19:49;;;;;;;22.75;12.38;;;;;;;;;;5107387;28;20052;-72
2023/09/11 09:22:18;;;;;;;19.35;12.32;;;;;;;;;;5086858;28;20056;-73
2023/09/11 09:24:48;;;;;;;24.63;12.13;;;;;;;;;;5091552;28;20079;-73
2023/09/11 09:41:30;;;;;;;18.65;12.18;;;;;;;;;;5081351;27;20295;-70
2023/09/11 09:43:58;;;;;;;26.10;14.43;;;;;;;;;;5082126;28;20071;-69
2023/09/11 09:46:25;;;;;;;18.27;13.23;;;;;;;;;;5062316;28;20095;-69
2023/09/11 09:48:53;;;;;;;21.67;13.85;;;;;;;;;;5080067;28;20566;-68
2023/09/11 09:51:21;;;;;;;19.25;13.10;;;;;;;;;;5068562;28;20063;-70
2023/09/11 09:53:48;;;;;;;13.40;7.75;;;;;;;;;;5083355;28;20533;-70
2023/09/11 09:56:16;;;;;;;19.33;10.77;;;;;;;;;;5067405;28;20052;-68
2023/09/11 09:58:45;;;;;;;15.93;10.45;;;;;;;;;;5086882;28;20048;-70
2023/09/11 10:01:13;;;;;;;19.13;8.60;;;;;;;;;;5067633;28;20040;-69
2023/09/11 10:03:41;;;;;;;14.45;8.68;;;;;;;;;;5086778;28;20052;-69
2023/09/11 10:06:09;;;;;;;17.55;10.57;;;;;;;;;;5066863;28;20052;-68
2023/09/11 10:08:36;;;;;;;13.10;9.02;;;;;;;;;;5064209;28;20633;-69
2023/09/11 10:11:03;;;;;;;12.25;8.30;;;;;;;;;;5083712;28;20047;-69
2023/09/11 10:13:33;;;;;;;13.82;8.82;;;;;;;;;;5081675;28;20052;-69
2023/09/11 10:16:01;;;;;;;12.98;8.30;;;;;;;;;;5084415;28;20514;-69
2023/09/11 10:18:31;;;;;;;12.85;8.55;;;;;;;;;;5083122;28;20048;-69
2023/09/11 10:20:59;;;;;;;13.65;10.13;;;;;;;;;;5068695;28;20048;-69
2023/09/11 10:23:27;;;;;;;17.15;9.88;;;;;;;;;;5074995;28;20499;-69
2023/09/11 10:25:58;;;;;;;17.63;9.43;;;;;;;;;;5078783;28;20086;-69
2023/09/11 10:28:29;;;;;;;15.38;9.88;;;;;;;;;;5080147;28;20056;-69
2023/09/11 10:30:59;;;;;;;18.63;11.05;;;;;;;;;;5067104;28;20646;-69
2023/09/11 10:33:29;;;;;;;15.05;10.88;;;;;;;;;;5067814;28;20060;-69
2023/09/11 10:35:57;;;;;;;18.50;9.65;;;;;;;;;;5084561;28;20040;-69
2023/09/11 10:38:24;;;;;;;14.05;9.00;;;;;;;;;;5082682;28;20043;-69
2023/09/11 10:40:54;;;;;;;16.05;8.10;;;;;;;;;;5084660;28;20058;-69
2023/09/11 10:43:21;;;;;;;13.50;9.32;;;;;;;;;;5083248;28;20058;-68
2023/09/11 10:45:49;;;;;;;13.15;9.10;;;;;;;;;;5062228;28;20059;-69
2023/09/11 10:48:31;;;;;;;14.18;8.20;;;;;;;;;;5082750;28;20055;-69
2023/09/11 10:50:59;;;;;;;16.42;7.72;;;;;;;;;;5077874;28;20483;-69
2023/09/11 10:53:27;;;;;;;15.63;8.27;;;;;;;;;;5051124;28;20063;-69
2023/09/11 10:55:57;;;;;;;11.45;6.75;;;;;;;;;;5052677;28;20573;-68
2023/09/11 10:58:25;;;;;;;14.43;6.25;;;;;;;;;;5049482;28;20052;-69
2023/09/11 11:00:56;;;;;;;8.85;6.25;;;;;;;;;;5070077;28;20045;-69
2023/09/11 11:03:25;;;;;;;9.88;6.00;;;;;;;;;;5071207;28;20533;-69
2023/09/11 11:05:54;;;;;;;7.97;3.95;;;;;;;;;;5071604;28;20060;-69
2023/09/11 11:08:22;;;;;;;6.53;3.95;;;;;;;;;;5069001;28;20041;-69
2023/09/11 11:10:51;;;;;;;7.82;4.82;;;;;;;;;;5049018;28;20399;-69
2023/09/11 11:13:19;;;;;;;8.43;4.35;;;;;;;;;;5052379;28;20061;-69
2023/09/11 11:15:46;;;;;;;8.98;5.28;;;;;;;;;;5051617;28;20500;-69
2023/09/11 11:18:17;;;;;;;10.10;5.82;;;;;;;;;;5065604;28;20051;-69
2023/09/11 11:21:05;;;;;;;10.60;5.47;;;;;;;;;;5048706;28;20040;-70
2023/09/11 11:23:33;;;;;;;7.57;5.03;;;;;;;;;;5066381;28;20098;-69
2023/09/11 11:26:04;;;;;;;9.43;4.57;;;;;;;;;;5066570;28;20385;-69
2023/09/11 11:28:39;;;;;;;7.88;5.00;;;;;;;;;;5066650;28;20048;-70
2023/09/11 11:31:08;;;;;;;8.98;4.03;;;;;;;;;;5065416;28;20059;-68
2023/09/11 11:33:36;;;;;;;9.10;4.90;;;;;;;;;;5065384;28;20703;-70
2023/09/11 11:36:06;;;;;;;8.88;4.32;;;;;;;;;;5045069;28;20519;-69
2023/09/11 11:38:34;;;;;;;11.65;4.50;;;;;;;;;;5060871;28;20048;-69
2023/09/11 11:41:02;;;;;;;12.00;5.35;;;;;;;;;;5046316;28;20049;-69
2023/09/11 11:43:30;;;;;;;12.20;5.90;;;;;;;;;;5064556;28;20052;-69
2023/09/11 11:45:57;;;;;;;16.08;8.85;;;;;;;;;;5048822;28;20049;-69
2023/09/11 11:48:27;;;;;;;11.32;8.77;;;;;;;;;;5067236;28;20058;-69
2023/09/11 11:50:54;;;;;;;13.55;10.25;;;;;;;;;;5051919;28;20059;-70
2023/09/11 11:53:24;;;;;;;15.70;9.15;;;;;;;;;;5067310;28;20488;-68
2023/09/11 11:55:52;;;;;;;16.13;9.98;;;;;;;;;;5045177;28;20076;-69
2023/09/11 11:58:19;;;;;;;13.60;9.38;;;;;;;;;;5053787;28;20045;-68
2023/09/11 12:00:58;;;;;;;16.77;8.60;;;;;;;;;;5043247;28;20114;-69
2023/09/11 12:03:26;;;;;;;13.98;8.27;;;;;;;;;;5067375;28;20101;-70
2023/09/11 12:05:53;;;;;;;16.70;8.20;;;;;;;;;;5049366;28;20128;-69
2023/09/11 12:08:21;;;;;;;12.55;8.30;;;;;;;;;;5065252;28;20500;-70
2023/09/11 12:10:49;;;;;;;13.05;7.75;;;;;;;;;;5051219;28;20057;-69
2023/09/11 12:13:17;;;;;;;15.23;7.80;;;;;;;;;;5068440;28;20389;-70
2023/09/11 12:15:44;;;;;;;13.18;9.05;;;;;;;;;;5068514;28;20052;-70
2023/09/11 12:18:14;;;;;;;15.40;10.07;;;;;;;;;;5062904;28;20049;-69
2023/09/11 12:20:51;;;;;;;13.52;9.32;;;;;;;;;;5065617;28;20554;-69
2023/09/11 12:23:18;;;;;;;13.45;9.50;;;;;;;;;;5065568;28;20102;-69
2023/09/11 12:25:45;;;;;;;12.82;9.40;;;;;;;;;;5068549;28;20048;-69
2023/09/11 12:28:14;;;;;;;17.05;9.38;;;;;;;;;;5046837;28;20056;-70
2023/09/11 12:30:42;;;;;;;14.68;9.82;;;;;;;;;;5067141;28;20048;-69
2023/09/11 12:33:10;;;;;;;17.60;8.75;;;;;;;;;;5067252;28;20044;-68
2023/09/11 12:35:37;;;;;;;14.05;9.27;;;;;;;;;;5068274;28;20051;-70
2023/09/11 12:38:04;;;;;;;16.95;9.32;;;;;;;;;;5047820;28;20064;-70
2023/09/11 12:40:32;;;;;;;17.50;8.95;;;;;;;;;;5068170;28;20055;-71
2023/09/11 12:42:59;;;;;;;11.70;8.40;;;;;;;;;;5049176;28;20123;-69
2023/09/11 12:45:28;;;;;;;14.10;8.30;;;;;;;;;;5051556;28;20060;-69
2023/09/11 12:47:55;;;;;;;11.52;7.40;;;;;;;;;;5065603;28;20048;-69
2023/09/11 12:50:23;;;;;;;16.10;7.97;;;;;;;;;;5049901;28;20056;-69
2023/09/11 12:52:50;;;;;;;12.88;7.82;;;;;;;;;;5067523;28;20036;-70
2023/09/11 12:55:17;;;;;;;13.18;8.32;;;;;;;;;;5047246;28;20057;-70
2023/09/11 12:57:44;;;;;;;12.07;8.48;;;;;;;;;;5064933;28;20111;-70
2023/09/11 13:00:12;;;;;;;12.20;8.65;;;;;;;;;;5051973;28;20048;-70
2023/09/11 13:02:41;;;;;;;12.70;7.57;;;;;;;;;;5048855;28;20057;-70
2023/09/11 13:05:08;;;;;;;12.15;7.90;;;;;;;;;;5068171;28;20049;-70
2023/09/11 13:07:36;;;;;;;13.60;7.80;;;;;;;;;;5067028;28;20055;-70
2023/09/11 13:10:03;;;;;;;14.88;7.63;;;;;;;;;;5065363;28;20102;-70
2023/09/11 13:12:31;;;;;;;13.52;8.15;;;;;;;;;;5064890;28;20122;-71
2023/09/11 13:14:58;;;;;;;15.50;7.88;;;;;;;;;;5045951;28;20099;-70
2023/09/11 13:17:25;;;;;;;9.57;7.63;;;;;;;;;;5048100;28;20166;-70
2023/09/11 13:19:54;;;;;;;13.43;8.52;;;;;;;;;;5064013;28;20044;-69
2023/09/11 14:35:50;;;;;;;17.00;12.27;;;;;;;;;;5106207;27;20139;-69
2023/09/11 14:38:18;;;;;;;26.15;15.27;;;;;;;;;;5119416;28;20043;-68
2023/09/11 14:40:45;;;;;;;26.05;15.23;;;;;;;;;;5113137;28;20048;-68
2023/09/11 14:43:12;;;;;;;22.83;15.15;;;;;;;;;;5109995;28;20383;-68
2023/09/11 14:45:39;;;;;;;23.33;13.80;;;;;;;;;;5115959;28;20515;-68
2023/09/11 14:48:07;;;;;;;20.90;13.82;;;;;;;;;;5118184;28;20043;-69
2023/09/11 14:50:34;;;;;;;23.38;14.35;;;;;;;;;;5114764;28;20063;-69
2023/09/11 14:53:02;;;;;;;22.35;14.10;;;;;;;;;;5101408;28;20048;-68
2023/09/11 14:55:30;;;;;;;24.30;15.43;;;;;;;;;;5114373;28;20055;-68
2023/09/11 14:57:57;;;;;;;23.27;14.82;;;;;;;;;;5122706;28;20048;-68
2023/09/11 15:00:24;;;;;;;18.25;13.88;;;;;;;;;;5117381;28;20047;-69
2023/09/11 15:02:51;;;;;;;18.40;12.35;;;;;;;;;;5096899;28;20056;-68
2023/09/11 15:05:19;;;;;;;21.65;12.88;;;;;;;;;;5109237;28;20058;-68
2023/09/11 15:07:46;;;;;;;20.48;13.13;;;;;;;;;;5114293;28;20518;-68
2023/09/11 15:10:17;;;;;;;21.35;12.48;;;;;;;;;;5098367;28;20044;-67
2023/09/11 15:12:44;;;;;;;19.05;13.10;;;;;;;;;;5101500;28;20063;-68
2023/09/11 15:15:12;;;;;;;17.77;13.15;;;;;;;;;;5104061;28;20048;-68
2023/09/11 15:17:39;;;;;;;21.63;13.02;;;;;;;;;;5092976;28;20054;-68
2023/09/11 15:20:08;;;;;;;23.40;13.23;;;;;;;;;;5099403;28;20043;-69
2023/09/11 15:22:35;;;;;;;22.67;13.57;;;;;;;;;;5079858;28;20105;-68
2023/09/11 15:25:03;;;;;;;20.00;14.00;;;;;;;;;;5103581;28;20051;-68
2023/09/11 15:27:31;;;;;;;22.77;14.55;;;;;;;;;;5101348;28;20082;-68
2023/09/11 15:29:58;;;;;;;21.48;14.23;;;;;;;;;;5093677;28;20055;-68
2023/09/11 15:32:26;;;;;;;22.60;14.48;;;;;;;;;;5101125;28;20047;-68
2023/09/11 15:34:53;;;;;;;19.95;13.68;;;;;;;;;;5103551;28;20043;-68
2023/09/11 15:37:21;;;;;;;20.42;13.75;;;;;;;;;;5091925;28;20063;-68
2023/09/11 15:39:48;;;;;;;16.52;13.07;;;;;;;;;;5095063;28;20044;-68
2023/09/11 15:42:15;;;;;;;20.42;13.13;;;;;;;;;;5102076;28;20050;-68
2023/09/11 15:44:44;;;;;;;19.88;12.70;;;;;;;;;;5089353;28;20174;-68
2023/09/11 15:47:11;;;;;;;22.60;12.55;;;;;;;;;;5079007;28;20044;-68
2023/09/11 15:49:39;;;;;;;20.50;13.27;;;;;;;;;;5069446;28;20178;-68
2023/09/11 15:52:06;;;;;;;21.33;14.27;;;;;;;;;;5076036;28;20495;-68
2023/09/11 15:54:34;;;;;;;23.55;14.40;;;;;;;;;;5077122;28;20495;-69
2023/09/11 15:57:01;;;;;;;20.40;13.63;;;;;;;;;;5090369;28;20059;-68